sensor_id;sensor_type;location;lat;lon;timestamp;pressure;altitude;pressure_sealevel;temperature;humidity
44988;BME280;35735;52.226;21.254;2023-04-19T00:02:04;100667.03;;;10.29;99.14
44988;BME280;35735;52.226;21.254;2023-04-19T00:07:05;100664.31;;;10.21;99.44
44988;BME280;35735;52.226;21.254;2023-04-19T00:12:05;100655.28;;;10.20;99.81
44988;BME280;35735;52.226;21.254;2023-04-19T00:17:06;100657.09;;;10.12;100.00
44988;BME280;35735;52.226;21.254;2023-04-19T00:22:06;100645.31;;;10.01;100.00
44988;BME280;35735;52.226;21.254;2023-04-19T00:27:07;100636.28;;;9.94;100.00
44988;BME280;35735;52.226;21.254;2023-04-19T00:32:07;100626.38;;;9.92;100.00
44988;BME280;35735;52.226;21.254;2023-04-19T00:37:08;100620.97;;;9.86;100.00
44988;BME280;35735;52.226;21.254;2023-04-19T00:42:09;100611.91;;;9.74;100.00
44988;BME280;35735;52.226;21.254;2023-04-19T00:47:09;100604.66;;;9.64;100.00
44988;BME280;35735;52.226;21.254;2023-04-19T00:52:10;100604.56;;;9.52;100.00
44988;BME280;35735;52.226;21.254;2023-04-19T00:57:10;100590.16;;;9.46;100.00
44988;BME280;35735;52.226;21.254;2023-04-19T01:02:11;100593.69;;;9.39;100.00
44988;BME280;35735;52.226;21.254;2023-04-19T01:07:12;100585.56;;;9.35;100.00
44988;BME280;35735;52.226;21.254;2023-04-19T01:12:12;100582.84;;;9.30;100.00
44988;BME280;35735;52.226;21.254;2023-04-19T01:17:13;100572.00;;;9.19;100.00
44988;BME280;35735;52.226;21.254;2023-04-19T01:22:17;100574.56;;;9.07;100.00
44988;BME280;35735;52.226;21.254;2023-04-19T01:27:18;100566.41;;;8.96;100.00
44988;BME280;35735;52.226;21.254;2023-04-19T01:32:19;100563.63;;;8.87;100.00
44988;BME280;35735;52.226;21.254;2023-04-19T01:37:19;100546.53;;;8.79;100.00
44988;BME280;35735;52.226;21.254;2023-04-19T01:42:20;100550.94;;;8.75;100.00
44988;BME280;35735;52.226;21.254;2023-04-19T01:47:21;100539.22;;;8.67;100.00
44988;BME280;35735;52.226;21.254;2023-04-19T01:52:22;100538.22;;;8.54;100.00
44988;BME280;35735;52.226;21.254;2023-04-19T01:57:23;100549.69;;;8.41;100.00
44988;BME280;35735;52.226;21.254;2023-04-19T02:02:23;100538.03;;;8.39;100.00
44988;BME280;35735;52.226;21.254;2023-04-19T02:07:24;100529.91;;;8.35;100.00
44988;BME280;35735;52.226;21.254;2023-04-19T02:12:28;100542.41;;;8.33;100.00
44988;BME280;35735;52.226;21.254;2023-04-19T02:17:29;100529.88;;;8.32;100.00
44988;BME280;35735;52.226;21.254;2023-04-19T02:22:30;100531.63;;;8.29;100.00
44988;BME280;35735;52.226;21.254;2023-04-19T02:27:30;100529.72;;;8.20;100.00
44988;BME280;35735;52.226;21.254;2023-04-19T02:32:31;100536.84;;;8.15;100.00
44988;BME280;35735;52.226;21.254;2023-04-19T02:37:31;100527.78;;;8.07;100.00
44988;BME280;35735;52.226;21.254;2023-04-19T02:42:32;100522.41;;;8.07;100.00
44988;BME280;35735;52.226;21.254;2023-04-19T02:47:32;100517.03;;;8.07;100.00
44988;BME280;35735;52.226;21.254;2023-04-19T02:52:33;100520.62;;;8.06;100.00
44988;BME280;35735;52.226;21.254;2023-04-19T02:57:33;100522.34;;;8.01;100.00
44988;BME280;35735;52.226;21.254;2023-04-19T03:02:34;100512.47;;;8.00;100.00
44988;BME280;35735;52.226;21.254;2023-04-19T03:07:35;100511.56;;;7.97;100.00
44988;BME280;35735;52.226;21.254;2023-04-19T03:12:35;100508.88;;;7.99;100.00
44988;BME280;35735;52.226;21.254;2023-04-19T03:17:36;100498.16;;;8.01;100.00
44988;BME280;35735;52.226;21.254;2023-04-19T03:22:37;100501.72;;;8.00;100.00
44988;BME280;35735;52.226;21.254;2023-04-19T03:27:38;100497.25;;;7.98;100.00
44988;BME280;35735;52.226;21.254;2023-04-19T03:32:38;100492.72;;;7.96;100.00
44988;BME280;35735;52.226;21.254;2023-04-19T03:37:39;100496.25;;;7.93;100.00
44988;BME280;35735;52.226;21.254;2023-04-19T03:42:39;100488.19;;;7.90;100.00
44988;BME280;35735;52.226;21.254;2023-04-19T03:47:40;100478.34;;;7.92;100.00
44988;BME280;35735;52.226;21.254;2023-04-19T03:52:41;100482.84;;;7.92;100.00
44988;BME280;35735;52.226;21.254;2023-04-19T03:57:41;100480.06;;;7.86;100.00
44988;BME280;35735;52.226;21.254;2023-04-19T04:02:42;100477.34;;;7.84;100.00
44988;BME280;35735;52.226;21.254;2023-04-19T04:07:42;100471.94;;;7.81;100.00
44988;BME280;35735;52.226;21.254;2023-04-19T04:12:43;100463.03;;;7.85;100.00
44988;BME280;35735;52.226;21.254;2023-04-19T04:17:43;100454.13;;;7.89;100.00
44988;BME280;35735;52.226;21.254;2023-04-19T04:22:44;100459.44;;;7.86;100.00
44988;BME280;35735;52.226;21.254;2023-04-19T04:27:45;100454.97;;;7.85;100.00
44988;BME280;35735;52.226;21.254;2023-04-19T04:32:45;100456.78;;;7.88;100.00
44988;BME280;35735;52.226;21.254;2023-04-19T04:37:46;100446.13;;;7.95;100.00
44988;BME280;35735;52.226;21.254;2023-04-19T04:42:46;100440.78;;;7.97;100.00
44988;BME280;35735;52.226;21.254;2023-04-19T04:47:47;100442.53;;;7.95;100.00
44988;BME280;35735;52.226;21.254;2023-04-19T04:52:47;100436.22;;;7.93;100.00
44988;BME280;35735;52.226;21.254;2023-04-19T04:57:48;100436.22;;;7.93;100.00
44988;BME280;35735;52.226;21.254;2023-04-19T05:02:48;100438.06;;;7.94;100.00
44988;BME280;35735;52.226;21.254;2023-04-19T05:07:49;100442.53;;;7.96;100.00
44988;BME280;35735;52.226;21.254;2023-04-19T05:12:49;100429.12;;;8.00;100.00
44988;BME280;35735;52.226;21.254;2023-04-19T05:17:50;100432.78;;;8.05;100.00
44988;BME280;35735;52.226;21.254;2023-04-19T05:22:56;100429.22;;;8.06;100.00
44988;BME280;35735;52.226;21.254;2023-04-19T05:27:57;100431.97;;;8.12;100.00
44988;BME280;35735;52.226;21.254;2023-04-19T05:32:57;100420.28;;;8.10;100.00
44988;BME280;35735;52.226;21.254;2023-04-19T05:37:58;100423.91;;;8.15;100.00
44988;BME280;35735;52.226;21.254;2023-04-19T05:42:58;100422.16;;;8.17;100.00
44988;BME280;35735;52.226;21.254;2023-04-19T05:47:59;100421.22;;;8.15;100.00
44988;BME280;35735;52.226;21.254;2023-04-19T05:52:59;100414.97;;;8.16;100.00
44988;BME280;35735;52.226;21.254;2023-04-19T05:58:00;100405.22;;;8.26;100.00
44988;BME280;35735;52.226;21.254;2023-04-19T06:03:00;100414.25;;;8.34;100.00
44988;BME280;35735;52.226;21.254;2023-04-19T06:08:01;100416.06;;;8.38;100.00
44988;BME280;35735;52.226;21.254;2023-04-19T06:13:01;100421.47;;;8.41;100.00
44988;BME280;35735;52.226;21.254;2023-04-19T06:18:02;100414.34;;;8.43;100.00
44988;BME280;35735;52.226;21.254;2023-04-19T06:23:03;100413.56;;;8.52;100.00
44988;BME280;35735;52.226;21.254;2023-04-19T06:28:04;100413.53;;;8.49;100.00
44988;BME280;35735;52.226;21.254;2023-04-19T06:33:04;100403.66;;;8.49;100.00
44988;BME280;35735;52.226;21.254;2023-04-19T06:38:05;100402.87;;;8.64;100.00
44988;BME280;35735;52.226;21.254;2023-04-19T06:43:05;100404.72;;;8.71;100.00
44988;BME280;35735;52.226;21.254;2023-04-19T06:48:06;100409.22;;;8.74;100.00
44988;BME280;35735;52.226;21.254;2023-04-19T06:53:06;100402.84;;;8.61;100.00
44988;BME280;35735;52.226;21.254;2023-04-19T06:58:07;100415.38;;;8.58;100.00
44988;BME280;35735;52.226;21.254;2023-04-19T07:03:08;100424.28;;;8.49;100.00
44988;BME280;35735;52.226;21.254;2023-04-19T07:08:08;100420.66;;;8.44;100.00
44988;BME280;35735;52.226;21.254;2023-04-19T07:13:12;100424.25;;;8.46;100.00
44988;BME280;35735;52.226;21.254;2023-04-19T07:18:12;100420.66;;;8.44;100.00
44988;BME280;35735;52.226;21.254;2023-04-19T07:23:13;100413.53;;;8.49;100.00
44988;BME280;35735;52.226;21.254;2023-04-19T07:28:14;100421.62;;;8.52;100.00
44988;BME280;35735;52.226;21.254;2023-04-19T07:33:15;100425.22;;;8.54;100.00
44988;BME280;35735;52.226;21.254;2023-04-19T07:38:15;100421.59;;;8.49;100.00
44988;BME280;35735;52.226;21.254;2023-04-19T07:43:16;100428.78;;;8.53;100.00
44988;BME280;35735;52.226;21.254;2023-04-19T07:48:17;100418.97;;;8.58;100.00
44988;BME280;35735;52.226;21.254;2023-04-19T07:53:17;100423.50;;;8.67;100.00
44988;BME280;35735;52.226;21.254;2023-04-19T07:58:18;100422.69;;;8.76;100.00
44988;BME280;35735;52.226;21.254;2023-04-19T08:03:19;100413.78;;;8.83;100.00
44988;BME280;35735;52.226;21.254;2023-04-19T08:08:19;100412.16;;;9.13;100.00
44988;BME280;35735;52.226;21.254;2023-04-19T08:13:20;100414.06;;;9.32;100.00
44988;BME280;35735;52.226;21.254;2023-04-19T08:18:20;100411.38;;;9.32;100.00
44988;BME280;35735;52.226;21.254;2023-04-19T08:23:21;100407.78;;;9.36;100.00
44988;BME280;35735;52.226;21.254;2023-04-19T08:28:22;100414.97;;;9.40;100.00
44988;BME280;35735;52.226;21.254;2023-04-19T08:33:22;100415.00;;;9.43;100.00
44988;BME280;35735;52.226;21.254;2023-04-19T08:38:23;100415.94;;;9.52;100.00
44988;BME280;35735;52.226;21.254;2023-04-19T08:43:24;100422.28;;;9.63;100.00
44988;BME280;35735;52.226;21.254;2023-04-19T08:48:26;100419.59;;;9.66;100.00
44988;BME280;35735;52.226;21.254;2023-04-19T08:53:27;100419.59;;;9.75;100.00
44988;BME280;35735;52.226;21.254;2023-04-19T08:58:28;100423.22;;;9.80;100.00
44988;BME280;35735;52.226;21.254;2023-04-19T09:03:29;100425.97;;;9.90;100.00
44988;BME280;35735;52.226;21.254;2023-04-19T09:08:30;100432.22;;;9.87;100.00
44988;BME280;35735;52.226;21.254;2023-04-19T09:13:31;100429.53;;;9.84;100.00
44988;BME280;35735;52.226;21.254;2023-04-19T09:18:32;100435.84;;;9.97;100.00
44988;BME280;35735;52.226;21.254;2023-04-19T09:23:32;100433.19;;;10.17;100.00
44988;BME280;35735;52.226;21.254;2023-04-19T09:28:33;100442.22;;;10.14;100.00
44988;BME280;35735;52.226;21.254;2023-04-19T09:33:35;100438.59;;;10.05;100.00
44988;BME280;35735;52.226;21.254;2023-04-19T09:38:47;100445.75;;;10.07;100.00
44988;BME280;35735;52.226;21.254;2023-04-19T09:43:49;100443.94;;;9.98;100.00
44988;BME280;35735;52.226;21.254;2023-04-19T09:48:49;100450.25;;;9.93;100.00
44988;BME280;35735;52.226;21.254;2023-04-19T09:53:50;100443.94;;;9.89;100.00
44988;BME280;35735;52.226;21.254;2023-04-19T09:58:50;100441.25;;;9.91;100.00
44988;BME280;35735;52.226;21.254;2023-04-19T10:03:51;100453.81;;;9.92;100.00
44988;BME280;35735;52.226;21.254;2023-04-19T10:08:52;100452.03;;;9.95;100.00
44988;BME280;35735;52.226;21.254;2023-04-19T10:13:56;100450.25;;;10.02;100.00
44988;BME280;35735;52.226;21.254;2023-04-19T10:19:01;100455.66;;;10.05;100.00
44988;BME280;35735;52.226;21.254;2023-04-19T10:24:03;100452.09;;;10.12;100.00
44988;BME280;35735;52.226;21.254;2023-04-19T10:29:04;100452.97;;;10.20;100.00
44988;BME280;35735;52.226;21.254;2023-04-19T10:34:05;100448.50;;;10.30;100.00
44988;BME280;35735;52.226;21.254;2023-04-19T10:39:46;100453.91;;;10.29;100.00
44988;BME280;35735;52.226;21.254;2023-04-19T10:51:34;100450.31;;;10.31;100.00
44988;BME280;35735;52.226;21.254;2023-04-19T11:02:00;100438.69;;;10.66;100.00
44988;BME280;35735;52.226;21.254;2023-04-19T11:07:04;100444.09;;;10.91;100.00
44988;BME280;35735;52.226;21.254;2023-04-19T11:12:13;100437.72;;;11.17;100.00
44988;BME280;35735;52.226;21.254;2023-04-19T11:17:21;100444.84;;;11.41;100.00
44988;BME280;35735;52.226;21.254;2023-04-19T11:22:33;100442.06;;;11.64;100.00
44988;BME280;35735;52.226;21.254;2023-04-19T11:27:39;100437.47;;;11.86;100.00
44988;BME280;35735;52.226;21.254;2023-04-19T11:32:48;100433.78;;;12.05;100.00
44988;BME280;35735;52.226;21.254;2023-04-19T11:37:50;100444.47;;;12.27;100.00
44988;BME280;35735;52.226;21.254;2023-04-19T11:42:55;100443.47;;;12.42;100.00
44988;BME280;35735;52.226;21.254;2023-04-19T11:47:57;100441.59;;;12.53;100.00
44988;BME280;35735;52.226;21.254;2023-04-19T11:52:58;100446.13;;;12.50;100.00
44988;BME280;35735;52.226;21.254;2023-04-19T11:57:59;100438.94;;;12.42;100.00
44988;BME280;35735;52.226;21.254;2023-04-19T12:03:00;100448.88;;;12.47;100.00
44988;BME280;35735;52.226;21.254;2023-04-19T12:08:04;100467.84;;;12.42;100.00
44988;BME280;35735;52.226;21.254;2023-04-19T12:13:17;100469.72;;;12.32;100.00
44988;BME280;35735;52.226;21.254;2023-04-19T12:18:18;100473.34;;;12.28;100.00
44988;BME280;35735;52.226;21.254;2023-04-19T12:23:19;100467.06;;;12.23;100.00
44988;BME280;35735;52.226;21.254;2023-04-19T12:28:21;100466.16;;;12.21;100.00
44988;BME280;35735;52.226;21.254;2023-04-19T12:33:21;100465.28;;;12.16;100.00
44988;BME280;35735;52.226;21.254;2023-04-19T12:38:22;100470.69;;;12.22;100.00
44988;BME280;35735;52.226;21.254;2023-04-19T12:43:23;100467.06;;;12.25;100.00
44988;BME280;35735;52.226;21.254;2023-04-19T12:48:24;100482.31;;;12.36;100.00
44988;BME280;35735;52.226;21.254;2023-04-19T12:53:25;100472.31;;;12.48;100.00
44988;BME280;35735;52.226;21.254;2023-04-19T12:58:25;100464.94;;;12.68;100.00
44988;BME280;35735;52.226;21.254;2023-04-19T13:03:26;100467.53;;;12.82;100.00
44988;BME280;35735;52.226;21.254;2023-04-19T13:08:27;100460.19;;;12.96;100.00
44988;BME280;35735;52.226;21.254;2023-04-19T13:13:27;100455.56;;;13.06;100.00
44988;BME280;35735;52.226;21.254;2023-04-19T13:18:28;100455.62;;;13.03;100.00
44988;BME280;35735;52.226;21.254;2023-04-19T13:23:28;100452.72;;;13.22;100.00
44988;BME280;35735;52.226;21.254;2023-04-19T13:28:29;100448.06;;;13.34;100.00
44988;BME280;35735;52.226;21.254;2023-04-19T13:33:30;100451.63;;;13.41;100.00
44988;BME280;35735;52.226;21.254;2023-04-19T13:38:30;100452.47;;;13.46;100.00
44988;BME280;35735;52.226;21.254;2023-04-19T13:43:31;100448.69;;;13.60;100.00
44988;BME280;35735;52.226;21.254;2023-04-19T13:48:31;100447.78;;;13.61;100.00
44988;BME280;35735;52.226;21.254;2023-04-19T13:53:32;100448.62;;;13.66;100.00
44988;BME280;35735;52.226;21.254;2023-04-19T13:58:32;100445.69;;;13.84;100.00
44988;BME280;35735;52.226;21.254;2023-04-19T14:03:33;100438.41;;;13.88;99.34
44988;BME280;35735;52.226;21.254;2023-04-19T14:08:33;100437.47;;;13.90;98.96
44988;BME280;35735;52.226;21.254;2023-04-19T14:13:34;100434.66;;;13.98;99.21
44988;BME280;35735;52.226;21.254;2023-04-19T14:18:34;100427.25;;;14.09;98.89
44988;BME280;35735;52.226;21.254;2023-04-19T14:23:35;100422.56;;;14.21;98.66
44988;BME280;35735;52.226;21.254;2023-04-19T14:28:36;100420.59;;;14.31;98.76
44988;BME280;35735;52.226;21.254;2023-04-19T14:33:36;100421.22;;;14.48;98.79
44988;BME280;35735;52.226;21.254;2023-04-19T14:38:37;100422.00;;;14.59;98.58
44988;BME280;35735;52.226;21.254;2023-04-19T14:43:37;100416.63;;;14.53;97.60
44988;BME280;35735;52.226;21.254;2023-04-19T14:48:38;100424.91;;;14.45;97.41
44988;BME280;35735;52.226;21.254;2023-04-19T14:53:38;100432.25;;;14.39;97.75
44988;BME280;35735;52.226;21.254;2023-04-19T14:58:39;100486.72;;;14.26;96.16
44988;BME280;35735;52.226;21.254;2023-04-19T15:03:40;100487.56;;;13.63;97.10
44988;BME280;35735;52.226;21.254;2023-04-19T15:08:40;100488.00;;;13.17;98.44
44988;BME280;35735;52.226;21.254;2023-04-19T15:13:41;100482.09;;;12.67;99.68
44988;BME280;35735;52.226;21.254;2023-04-19T15:18:41;100485.94;;;12.32;100.00
44988;BME280;35735;52.226;21.254;2023-04-19T15:23:42;100473.38;;;12.22;100.00
44988;BME280;35735;52.226;21.254;2023-04-19T15:28:43;100458.97;;;12.17;100.00
44988;BME280;35735;52.226;21.254;2023-04-19T15:33:43;100487.87;;;12.15;100.00
44988;BME280;35735;52.226;21.254;2023-04-19T15:38:44;100485.19;;;12.05;100.00
44988;BME280;35735;52.226;21.254;2023-04-19T15:43:44;100492.50;;;11.91;100.00
44988;BME280;35735;52.226;21.254;2023-04-19T15:48:45;100488.88;;;11.80;100.00
44988;BME280;35735;52.226;21.254;2023-04-19T15:53:45;100492.50;;;11.80;100.00
44988;BME280;35735;52.226;21.254;2023-04-19T15:58:46;100494.25;;;11.91;100.00
44988;BME280;35735;52.226;21.254;2023-04-19T16:03:46;100494.25;;;11.89;100.00
44988;BME280;35735;52.226;21.254;2023-04-19T16:08:48;100506.91;;;11.92;100.00
44988;BME280;35735;52.226;21.254;2023-04-19T16:13:49;100514.09;;;11.90;100.00
44988;BME280;35735;52.226;21.254;2023-04-19T16:18:49;100513.22;;;11.80;100.00
44988;BME280;35735;52.226;21.254;2023-04-19T16:23:50;100509.66;;;11.72;100.00
44988;BME280;35735;52.226;21.254;2023-04-19T16:28:51;100509.66;;;11.68;100.00
44988;BME280;35735;52.226;21.254;2023-04-19T16:33:51;100534.00;;;11.62;100.00
44988;BME280;35735;52.226;21.254;2023-04-19T16:38:52;100527.69;;;11.57;100.00
44988;BME280;35735;52.226;21.254;2023-04-19T16:43:52;100525.94;;;11.53;100.00
44988;BME280;35735;52.226;21.254;2023-04-19T16:48:53;100536.72;;;11.56;100.00
44988;BME280;35735;52.226;21.254;2023-04-19T16:53:54;100544.84;;;11.53;100.00
44988;BME280;35735;52.226;21.254;2023-04-19T16:58:54;100542.16;;;11.56;100.00
44988;BME280;35735;52.226;21.254;2023-04-19T17:03:55;100543.94;;;11.54;100.00
44988;BME280;35735;52.226;21.254;2023-04-19T17:08:55;100552.97;;;11.53;100.00
44988;BME280;35735;52.226;21.254;2023-04-19T17:13:56;100552.97;;;11.50;100.00
44988;BME280;35735;52.226;21.254;2023-04-19T17:18:56;100565.53;;;11.54;100.00
44988;BME280;35735;52.226;21.254;2023-04-19T17:23:57;100573.66;;;11.53;100.00
44988;BME280;35735;52.226;21.254;2023-04-19T17:28:58;100574.56;;;11.44;100.00
44988;BME280;35735;52.226;21.254;2023-04-19T17:33:58;100570.97;;;11.36;100.00
44988;BME280;35735;52.226;21.254;2023-04-19T17:38:59;100577.28;;;11.24;100.00
44988;BME280;35735;52.226;21.254;2023-04-19T17:43:59;100587.19;;;11.17;100.00
44988;BME280;35735;52.226;21.254;2023-04-19T17:49:00;100590.81;;;11.13;100.00
44988;BME280;35735;52.226;21.254;2023-04-19T17:54:00;100601.59;;;11.07;100.00
44988;BME280;35735;52.226;21.254;2023-04-19T17:59:01;100603.41;;;11.05;100.00
44988;BME280;35735;52.226;21.254;2023-04-19T18:04:02;100601.59;;;11.07;100.00
44988;BME280;35735;52.226;21.254;2023-04-19T18:09:03;100612.41;;;11.07;100.00
44988;BME280;35735;52.226;21.254;2023-04-19T18:14:04;100617.81;;;11.02;100.00
44988;BME280;35735;52.226;21.254;2023-04-19T18:19:04;100612.41;;;11.01;100.00
44988;BME280;35735;52.226;21.254;2023-04-19T18:24:05;100616.91;;;10.99;100.00
44988;BME280;35735;52.226;21.254;2023-04-19T18:29:06;100617.81;;;10.94;100.00
44988;BME280;35735;52.226;21.254;2023-04-19T18:34:07;100620.47;;;10.76;100.00
44988;BME280;35735;52.226;21.254;2023-04-19T18:39:07;100624.94;;;10.65;100.00
44988;BME280;35735;52.226;21.254;2023-04-19T18:44:08;100628.50;;;10.61;100.00
44988;BME280;35735;52.226;21.254;2023-04-19T18:49:08;100626.72;;;10.60;100.00
44988;BME280;35735;52.226;21.254;2023-04-19T18:54:09;100619.53;;;10.62;100.00
44988;BME280;35735;52.226;21.254;2023-04-19T18:59:09;100632.12;;;10.61;100.00
44988;BME280;35735;52.226;21.254;2023-04-19T19:04:11;100625.78;;;10.50;100.00
44988;BME280;35735;52.226;21.254;2023-04-19T19:09:15;100635.62;;;10.37;100.00
44988;BME280;35735;52.226;21.254;2023-04-19T19:14:16;100638.25;;;10.26;100.00
44988;BME280;35735;52.226;21.254;2023-04-19T19:19:16;100640.94;;;10.22;100.00
44988;BME280;35735;52.226;21.254;2023-04-19T19:24:17;100644.53;;;10.17;100.00
44988;BME280;35735;52.226;21.254;2023-04-19T19:29:18;100641.81;;;10.17;100.00
44988;BME280;35735;52.226;21.254;2023-04-19T19:34:18;100633.72;;;10.24;100.00
44988;BME280;35735;52.226;21.254;2023-04-19T19:39:19;100631.03;;;10.22;100.00
44988;BME280;35735;52.226;21.254;2023-04-19T19:44:19;100637.34;;;10.21;100.00
44988;BME280;35735;52.226;21.254;2023-04-19T19:49:20;100627.47;;;10.28;100.00
44988;BME280;35735;52.226;21.254;2023-04-19T19:54:20;100617.66;;;10.36;100.00
44988;BME280;35735;52.226;21.254;2023-04-19T19:59:21;100617.66;;;10.37;100.00
44988;BME280;35735;52.226;21.254;2023-04-19T20:04:21;100605.09;;;10.50;100.00
44988;BME280;35735;52.226;21.254;2023-04-19T20:09:22;100610.53;;;10.56;100.00
44988;BME280;35735;52.226;21.254;2023-04-19T20:14:23;100618.59;;;10.52;100.00
44988;BME280;35735;52.226;21.254;2023-04-19T20:19:24;100624.00;;;10.53;100.00
44988;BME280;35735;52.226;21.254;2023-04-19T20:24:24;100616.81;;;10.52;100.00
44988;BME280;35735;52.226;21.254;2023-04-19T20:29:25;100623.13;;;10.57;100.00
44988;BME280;35735;52.226;21.254;2023-04-19T20:34:26;100632.12;;;10.60;100.00
44988;BME280;35735;52.226;21.254;2023-04-19T20:39:26;100636.63;;;10.62;100.00
44988;BME280;35735;52.226;21.254;2023-04-19T20:44:27;100642.03;;;10.57;100.00
44988;BME280;35735;52.226;21.254;2023-04-19T20:49:27;100640.22;;;10.60;100.00
44988;BME280;35735;52.226;21.254;2023-04-19T20:54:28;100645.59;;;10.55;100.00
44988;BME280;35735;52.226;21.254;2023-04-19T20:59:29;100636.63;;;10.56;100.00
44988;BME280;35735;52.226;21.254;2023-04-19T21:04:30;100636.59;;;10.61;100.00
44988;BME280;35735;52.226;21.254;2023-04-19T21:09:30;100635.72;;;10.62;100.00
44988;BME280;35735;52.226;21.254;2023-04-19T21:14:31;100642.94;;;10.61;100.00
44988;BME280;35735;52.226;21.254;2023-04-19T21:19:31;100641.09;;;10.57;100.00
44988;BME280;35735;52.226;21.254;2023-04-19T21:24:32;100654.59;;;10.57;100.00
44988;BME280;35735;52.226;21.254;2023-04-19T21:29:32;100653.66;;;10.50;100.00
44988;BME280;35735;52.226;21.254;2023-04-19T21:34:33;100656.34;;;10.47;100.00
44988;BME280;35735;52.226;21.254;2023-04-19T21:39:34;100661.78;;;10.50;100.00
44988;BME280;35735;52.226;21.254;2023-04-19T21:44:34;100657.28;;;10.49;100.00
44988;BME280;35735;52.226;21.254;2023-04-19T21:49:35;100665.38;;;10.55;100.00
44988;BME280;35735;52.226;21.254;2023-04-19T21:54:36;100669.88;;;10.52;100.00
44988;BME280;35735;52.226;21.254;2023-04-19T21:59:36;100663.59;;;10.53;100.00
44988;BME280;35735;52.226;21.254;2023-04-19T22:04:37;100664.47;;;10.53;100.00
44988;BME280;35735;52.226;21.254;2023-04-19T22:09:38;100657.31;;;10.52;100.00
44988;BME280;35735;52.226;21.254;2023-04-19T22:14:38;100664.47;;;10.50;100.00
44988;BME280;35735;52.226;21.254;2023-04-19T22:19:39;100664.47;;;10.44;100.00
44988;BME280;35735;52.226;21.254;2023-04-19T22:24:39;100658.16;;;10.39;100.00
44988;BME280;35735;52.226;21.254;2023-04-19T22:29:40;100665.31;;;10.40;100.00
44988;BME280;35735;52.226;21.254;2023-04-19T22:34:41;100664.34;;;10.29;100.00
44988;BME280;35735;52.226;21.254;2023-04-19T22:39:41;100660.72;;;10.24;100.00
44988;BME280;35735;52.226;21.254;2023-04-19T22:44:42;100656.19;;;10.16;100.00
44988;BME280;35735;52.226;21.254;2023-04-19T22:49:43;100650.78;;;10.15;100.00
44988;BME280;35735;52.226;21.254;2023-04-19T22:54:43;100648.97;;;10.09;100.00
44988;BME280;35735;52.226;21.254;2023-04-19T22:59:44;100648.88;;;9.98;100.00
44988;BME280;35735;52.226;21.254;2023-04-19T23:04:45;100649.75;;;9.93;100.00
44988;BME280;35735;52.226;21.254;2023-04-19T23:09:45;100649.75;;;9.91;100.00
44988;BME280;35735;52.226;21.254;2023-04-19T23:14:46;100653.31;;;9.89;100.00
44988;BME280;35735;52.226;21.254;2023-04-19T23:19:46;100647.94;;;9.92;100.00
44988;BME280;35735;52.226;21.254;2023-04-19T23:24:47;100663.19;;;9.87;100.00
44988;BME280;35735;52.226;21.254;2023-04-19T23:29:47;100649.72;;;9.87;100.00
44988;BME280;35735;52.226;21.254;2023-04-19T23:34:48;100647.91;;;9.82;100.00
44988;BME280;35735;52.226;21.254;2023-04-19T23:39:48;100652.34;;;9.74;100.00
44988;BME280;35735;52.226;21.254;2023-04-19T23:44:49;100645.94;;;9.60;100.00
44988;BME280;35735;52.226;21.254;2023-04-19T23:49:49;100647.75;;;9.59;100.00
44988;BME280;35735;52.226;21.254;2023-04-19T23:54:50;100637.81;;;9.51;100.00
44988;BME280;35735;52.226;21.254;2023-04-19T23:59:51;100636.84;;;9.47;100.00
